Time;durP1;ratioP1;P1;durP2;ratioP2;P2;SDS_P1;SDS_P2;PMS_P1;PMS_P2;Temp;Humidity;BMP_temperature;BMP_pressure;BME280_temperature;BME280_humidity;BME280_pressure;Samples;Min_cycle;Max_cycle;Signal;HPM_P1;HPM_P2
2021/11/27 00:01:45;;;;;;;;;6.00;3.50;;;;;;;;5072870;28;50632;-62
2021/11/27 00:04:11;;;;;;;;;5.50;5.50;;;;;;;;5072486;27;49778;-62
2021/11/27 00:06:37;;;;;;;;;3.00;1.75;;;;;;;;5072825;28;49680;-61
2021/11/27 00:09:03;;;;;;;;;5.00;5.00;;;;;;;;5072444;27;50469;-62
2021/11/27 00:11:29;;;;;;;;;7.75;5.25;;;;;;;;5072397;27;50045;-62
2021/11/27 00:13:55;;;;;;;;;7.25;3.00;;;;;;;;5072622;28;49691;-62
2021/11/27 00:16:20;;;;;;;;;5.50;5.50;;;;;;;;5072866;28;49797;-62
2021/11/27 00:18:45;;;;;;;;;4.00;3.00;;;;;;;;5071977;28;50543;-63
2021/11/27 00:21:12;;;;;;;;;2.00;2.00;;;;;;;;5072190;28;49776;-61
2021/11/27 00:23:38;;;;;;;;;5.75;4.00;;;;;;;;5071455;28;49577;-62
2021/11/27 00:26:06;;;;;;;;;6.75;5.00;;;;;;;;5072534;28;49698;-62
2021/11/27 00:28:31;;;;;;;;;5.75;3.00;;;;;;;;5071820;28;51071;-62
2021/11/27 00:31:00;;;;;;;;;5.00;3.00;;;;;;;;5072028;28;49576;-62
2021/11/27 00:33:25;;;;;;;;;5.75;5.75;;;;;;;;5072140;28;49558;-61
2021/11/27 00:35:50;;;;;;;;;5.25;2.25;;;;;;;;5072230;28;49741;-62
2021/11/27 00:38:16;;;;;;;;;5.50;2.00;;;;;;;;5072113;28;50473;-62
2021/11/27 00:40:42;;;;;;;;;5.50;3.00;;;;;;;;5072277;28;49551;-64
2021/11/27 00:43:08;;;;;;;;;1.50;1.50;;;;;;;;5072097;28;49537;-62
2021/11/27 00:45:34;;;;;;;;;3.00;2.00;;;;;;;;5072197;27;49671;-62
2021/11/27 00:47:59;;;;;;;;;4.50;4.50;;;;;;;;5071720;27;50742;-62
2021/11/27 00:50:30;;;;;;;;;4.00;4.00;;;;;;;;5071623;28;49673;-62
2021/11/27 00:52:56;;;;;;;;;3.00;3.00;;;;;;;;5072110;28;49990;-61
2021/11/27 00:55:22;;;;;;;;;5.75;4.00;;;;;;;;5072254;28;49784;-62
2021/11/27 00:57:48;;;;;;;;;2.00;2.00;;;;;;;;5071862;28;49698;-62
2021/11/27 01:00:15;;;;;;;;;2.25;2.00;;;;;;;;5070458;28;49734;-62
2021/11/27 01:02:41;;;;;;;;;2.25;1.25;;;;;;;;5071991;27;49862;-61
2021/11/27 01:05:06;;;;;;;;;3.25;1.50;;;;;;;;5071734;28;49683;-62
2021/11/27 01:07:32;;;;;;;;;3.00;3.00;;;;;;;;5071430;28;50512;-61
2021/11/27 01:09:57;;;;;;;;;5.00;2.75;;;;;;;;5071586;28;49750;-62
2021/11/27 01:12:22;;;;;;;;;1.00;1.00;;;;;;;;5071856;28;49791;-64
2021/11/27 01:14:47;;;;;;;;;1.00;1.00;;;;;;;;5070543;28;49665;-62
2021/11/27 01:17:13;;;;;;;;;0.00;0.00;;;;;;;;5071519;28;50513;-62
2021/11/27 01:19:39;;;;;;;;;0.50;0.50;;;;;;;;5071366;28;49672;-62
2021/11/27 01:22:09;;;;;;;;;1.50;1.50;;;;;;;;5071160;28;49758;-62
2021/11/27 01:24:35;;;;;;;;;1.00;1.00;;;;;;;;5071850;28;49884;-64
2021/11/27 01:27:00;;;;;;;;;1.00;1.00;;;;;;;;5071329;28;50309;-61
2021/11/27 01:29:26;;;;;;;;;0.25;0.25;;;;;;;;5071727;28;49727;-61
2021/11/27 01:31:51;;;;;;;;;0.00;0.00;;;;;;;;5071392;28;49781;-62
2021/11/27 01:34:16;;;;;;;;;0.00;0.00;;;;;;;;5071398;27;49686;-62
2021/11/27 01:36:42;;;;;;;;;1.50;0.00;;;;;;;;5075076;28;50384;-62
2021/11/27 01:39:07;;;;;;;;;1.00;0.00;;;;;;;;5074933;28;49659;-62
2021/11/27 01:41:34;;;;;;;;;0.00;0.00;;;;;;;;5075036;28;49902;-62
2021/11/27 01:43:59;;;;;;;;;0.00;0.00;;;;;;;;5075225;28;49742;-67
2021/11/27 01:46:24;;;;;;;;;0.00;0.00;;;;;;;;5074706;28;49699;-61
2021/11/27 01:48:50;;;;;;;;;0.00;0.00;;;;;;;;5074750;28;49977;-61
2021/11/27 01:51:19;;;;;;;;;0.00;0.00;;;;;;;;5074951;28;49619;-61
2021/11/27 01:53:47;;;;;;;;;0.50;0.50;;;;;;;;5075128;27;49940;-61
2021/11/27 01:56:15;;;;;;;;;0.00;0.00;;;;;;;;5074513;28;49837;-61
2021/11/27 01:58:41;;;;;;;;;0.25;0.00;;;;;;;;5074450;27;49554;-61
2021/11/27 02:01:08;;;;;;;;;1.00;1.00;;;;;;;;5074693;28;49506;-76
2021/11/27 02:03:34;;;;;;;;;1.00;1.00;;;;;;;;5074752;28;49733;-64
2021/11/27 02:06:00;;;;;;;;;0.00;0.00;;;;;;;;5073322;28;52441;-81
2021/11/27 02:08:26;;;;;;;;;0.00;0.00;;;;;;;;5074677;27;49735;-77
2021/11/27 02:10:51;;;;;;;;;1.00;0.25;;;;;;;;5074692;27;49799;-80
2021/11/27 02:13:17;;;;;;;;;0.50;0.50;;;;;;;;5074665;27;49751;-75
2021/11/27 02:15:42;;;;;;;;;2.00;2.00;;;;;;;;5074058;28;50500;-62
2021/11/27 02:18:07;;;;;;;;;2.00;1.00;;;;;;;;5074444;28;49750;-61
2021/11/27 02:20:34;;;;;;;;;1.00;1.00;;;;;;;;5074105;28;49692;-61
2021/11/27 02:22:59;;;;;;;;;2.00;2.00;;;;;;;;5074057;28;49668;-61
2021/11/27 02:25:24;;;;;;;;;0.75;0.75;;;;;;;;5074191;28;49717;-61
2021/11/27 02:27:51;;;;;;;;;1.50;1.00;;;;;;;;5074130;27;49653;-63
2021/11/27 02:30:18;;;;;;;;;2.75;2.25;;;;;;;;5074102;27;49651;-76
2021/11/27 02:32:44;;;;;;;;;2.00;1.00;;;;;;;;5074250;28;49866;-80
2021/11/27 02:35:10;;;;;;;;;1.00;1.00;;;;;;;;5073696;28;49734;-73
2021/11/27 02:37:36;;;;;;;;;1.00;1.00;;;;;;;;5074403;28;49898;-80
2021/11/27 02:40:01;;;;;;;;;2.25;1.00;;;;;;;;5074350;27;50017;-80
2021/11/27 02:42:26;;;;;;;;;0.00;0.00;;;;;;;;5074305;27;49719;-74
2021/11/27 02:44:51;;;;;;;;;0.50;0.00;;;;;;;;5074042;28;50538;-76
2021/11/27 02:47:17;;;;;;;;;2.00;0.00;;;;;;;;5072923;27;49834;-62
2021/11/27 02:49:43;;;;;;;;;0.00;0.00;;;;;;;;5073868;27;49609;-61
2021/11/27 02:52:08;;;;;;;;;1.00;0.75;;;;;;;;5073946;28;49587;-61
2021/11/27 02:54:34;;;;;;;;;0.00;0.00;;;;;;;;5073747;28;50195;-61
2021/11/27 02:56:59;;;;;;;;;0.25;0.25;;;;;;;;5073888;28;49895;-62
2021/11/27 02:59:27;;;;;;;;;1.25;1.00;;;;;;;;5073956;27;49531;-68
2021/11/27 03:01:54;;;;;;;;;0.50;0.50;;;;;;;;5073885;28;49887;-79
2021/11/27 03:04:19;;;;;;;;;1.00;1.00;;;;;;;;5073355;27;50595;-80
2021/11/27 03:06:44;;;;;;;;;2.50;0.25;;;;;;;;5073696;28;49760;-76
2021/11/27 03:09:12;;;;;;;;;1.00;1.00;;;;;;;;5073735;28;49802;-79
2021/11/27 03:11:37;;;;;;;;;1.00;1.00;;;;;;;;5073823;27;49851;-79
2021/11/27 03:14:03;;;;;;;;;0.00;0.00;;;;;;;;5073494;27;49701;-76
2021/11/27 03:16:30;;;;;;;;;2.00;0.00;;;;;;;;5073682;27;49727;-62
2021/11/27 03:18:55;;;;;;;;;4.00;0.00;;;;;;;;5073344;28;49735;-62
2021/11/27 03:21:20;;;;;;;;;0.00;0.00;;;;;;;;5073813;28;49906;-62
2021/11/27 03:23:46;;;;;;;;;1.50;1.50;;;;;;;;5073051;27;49854;-62
2021/11/27 03:26:11;;;;;;;;;0.00;0.00;;;;;;;;5073284;28;50028;-64
2021/11/27 03:28:36;;;;;;;;;1.00;1.00;;;;;;;;5073603;28;49712;-61
2021/11/27 03:31:01;;;;;;;;;1.75;1.75;;;;;;;;5073391;28;49891;-77
2021/11/27 03:33:26;;;;;;;;;3.00;0.50;;;;;;;;5072926;28;50364;-72
2021/11/27 03:35:52;;;;;;;;;1.25;1.00;;;;;;;;5073281;28;49841;-78
2021/11/27 03:38:17;;;;;;;;;1.00;1.00;;;;;;;;5073333;28;49912;-78
2021/11/27 03:40:44;;;;;;;;;1.25;0.00;;;;;;;;5073460;28;49582;-76
2021/11/27 03:43:09;;;;;;;;;0.00;0.00;;;;;;;;5073093;27;49817;-80
2021/11/27 03:45:34;;;;;;;;;1.00;1.00;;;;;;;;5073128;28;49784;-77
2021/11/27 03:48:04;;;;;;;;;0.00;0.00;;;;;;;;5075567;28;49734;-62
2021/11/27 03:50:30;;;;;;;;;1.00;1.00;;;;;;;;5072846;28;49828;-61
2021/11/27 03:52:55;;;;;;;;;0.75;0.75;;;;;;;;5072614;28;50472;-62
2021/11/27 03:55:20;;;;;;;;;1.00;1.00;;;;;;;;5072797;28;49817;-61
2021/11/27 03:57:46;;;;;;;;;1.00;1.00;;;;;;;;5072849;28;49692;-61
2021/11/27 04:00:11;;;;;;;;;0.25;0.00;;;;;;;;5073153;28;49904;-62
2021/11/27 04:02:36;;;;;;;;;0.00;0.00;;;;;;;;5072798;27;50024;-61
2021/11/27 04:05:02;;;;;;;;;0.25;0.25;;;;;;;;5072511;28;49765;-62
2021/11/27 04:07:27;;;;;;;;;0.00;0.00;;;;;;;;5072735;28;49902;-62
2021/11/27 04:09:52;;;;;;;;;1.00;0.00;;;;;;;;5072773;28;49868;-62
2021/11/27 04:12:18;;;;;;;;;2.00;1.00;;;;;;;;5072288;28;50375;-62
2021/11/27 04:14:43;;;;;;;;;1.00;1.00;;;;;;;;5075388;28;49704;-64
2021/11/27 04:17:08;;;;;;;;;0.50;0.00;;;;;;;;5071313;28;50018;-62
2021/11/27 04:19:33;;;;;;;;;0.00;0.00;;;;;;;;5072681;28;49838;-62
2021/11/27 04:21:58;;;;;;;;;2.00;1.00;;;;;;;;5072156;28;49761;-62
2021/11/27 04:24:24;;;;;;;;;1.00;1.00;;;;;;;;5072083;28;49902;-62
2021/11/27 04:26:49;;;;;;;;;0.00;0.00;;;;;;;;5072441;28;49862;-62
2021/11/27 04:29:14;;;;;;;;;0.00;0.00;;;;;;;;5072628;28;49667;-62
2021/11/27 04:31:39;;;;;;;;;1.25;1.25;;;;;;;;5072113;28;49816;-62
2021/11/27 04:34:05;;;;;;;;;0.00;0.00;;;;;;;;5072068;28;49825;-62
2021/11/27 04:36:31;;;;;;;;;0.50;0.50;;;;;;;;5072338;27;49696;-62
2021/11/27 04:38:56;;;;;;;;;0.50;0.00;;;;;;;;5072455;27;49782;-62
2021/11/27 04:41:21;;;;;;;;;1.00;0.00;;;;;;;;5072025;28;49985;-61
2021/11/27 04:43:46;;;;;;;;;1.75;0.25;;;;;;;;5072166;28;49632;-62
2021/11/27 04:46:11;;;;;;;;;2.00;1.00;;;;;;;;5072156;28;49844;-61
2021/11/27 04:48:37;;;;;;;;;0.25;0.00;;;;;;;;5071973;28;50078;-62
2021/11/27 04:51:02;;;;;;;;;0.25;0.25;;;;;;;;5071814;27;50428;-62
2021/11/27 04:53:27;;;;;;;;;1.00;0.00;;;;;;;;5071984;27;49725;-61
2021/11/27 04:55:54;;;;;;;;;0.50;0.50;;;;;;;;5072035;28;49558;-63
2021/11/27 04:58:19;;;;;;;;;0.50;0.00;;;;;;;;5072209;27;49704;-62
2021/11/27 05:00:46;;;;;;;;;1.00;0.00;;;;;;;;5071733;27;50507;-61
2021/11/27 05:03:11;;;;;;;;;1.75;0.75;;;;;;;;5071729;28;49596;-62
2021/11/27 05:05:37;;;;;;;;;1.00;1.00;;;;;;;;5071620;28;49697;-61
2021/11/27 05:08:03;;;;;;;;;0.00;0.00;;;;;;;;5071744;28;49540;-62
2021/11/27 05:10:28;;;;;;;;;0.00;0.00;;;;;;;;5070975;28;51816;-62
2021/11/27 05:12:53;;;;;;;;;0.25;0.25;;;;;;;;5071754;27;49938;-65
2021/11/27 05:15:19;;;;;;;;;0.00;0.00;;;;;;;;5071693;28;49949;-62
2021/11/27 05:17:44;;;;;;;;;0.75;0.75;;;;;;;;5071885;28;49728;-62
2021/11/27 05:20:09;;;;;;;;;0.00;0.00;;;;;;;;5071246;27;50555;-66
2021/11/27 05:22:35;;;;;;;;;5.00;1.00;;;;;;;;5071250;28;49656;-65
2021/11/27 05:25:01;;;;;;;;;0.00;0.00;;;;;;;;5071545;28;49625;-62
2021/11/27 05:27:26;;;;;;;;;1.00;0.00;;;;;;;;5071890;28;49873;-68
2021/11/27 05:29:51;;;;;;;;;2.00;1.00;;;;;;;;5071458;28;50152;-62
2021/11/27 05:32:23;;;;;;;;;0.75;0.75;;;;;;;;5071270;28;49879;-62
2021/11/27 05:34:49;;;;;;;;;0.00;0.00;;;;;;;;5071380;27;49711;-62
2021/11/27 05:37:14;;;;;;;;;0.25;0.25;;;;;;;;5071378;28;49946;-66
2021/11/27 05:39:42;;;;;;;;;1.00;0.00;;;;;;;;5071109;27;50627;-62
2021/11/27 05:42:09;;;;;;;;;1.00;0.25;;;;;;;;5071419;28;49740;-62
2021/11/27 05:44:35;;;;;;;;;2.25;1.25;;;;;;;;5071494;28;49944;-62
2021/11/27 05:47:00;;;;;;;;;1.25;1.25;;;;;;;;5071455;28;49869;-65
2021/11/27 05:49:26;;;;;;;;;0.00;0.00;;;;;;;;5071116;28;49691;-62
2021/11/27 05:51:51;;;;;;;;;0.00;0.00;;;;;;;;5069771;28;49815;-62
2021/11/27 05:54:16;;;;;;;;;0.25;0.25;;;;;;;;5071422;28;49929;-63
2021/11/27 05:56:41;;;;;;;;;0.00;0.00;;;;;;;;5071420;28;49519;-62
2021/11/27 05:59:07;;;;;;;;;1.25;1.25;;;;;;;;5070909;28;50477;-62
2021/11/27 06:01:32;;;;;;;;;1.00;0.00;;;;;;;;5071133;28;49656;-62
2021/11/27 06:03:57;;;;;;;;;1.00;1.00;;;;;;;;5071004;28;50079;-62
2021/11/27 06:06:22;;;;;;;;;3.50;1.50;;;;;;;;5071243;28;49681;-62
2021/11/27 06:08:48;;;;;;;;;5.00;0.00;;;;;;;;5070969;28;49679;-62
2021/11/27 06:11:13;;;;;;;;;0.75;0.25;;;;;;;;5069316;28;49782;-62
2021/11/27 06:13:38;;;;;;;;;2.25;0.00;;;;;;;;5071148;28;49885;-61
2021/11/27 06:16:06;;;;;;;;;0.00;0.00;;;;;;;;5071261;28;49664;-62
2021/11/27 06:18:33;;;;;;;;;1.75;0.50;;;;;;;;5070612;27;49754;-70
2021/11/27 06:20:58;;;;;;;;;1.00;1.00;;;;;;;;5070797;28;49783;-74
2021/11/27 06:23:24;;;;;;;;;5.75;0.25;;;;;;;;5073215;28;49773;-63
2021/11/27 06:25:49;;;;;;;;;1.75;0.00;;;;;;;;5072709;28;49720;-62
2021/11/27 06:28:14;;;;;;;;;2.00;0.75;;;;;;;;5074183;27;51426;-61
2021/11/27 06:30:41;;;;;;;;;0.25;0.25;;;;;;;;5074108;28;49749;-61
2021/11/27 06:33:06;;;;;;;;;0.00;0.00;;;;;;;;5072906;28;49642;-62
2021/11/27 06:35:32;;;;;;;;;0.75;0.75;;;;;;;;5073965;27;49631;-64
2021/11/27 06:37:57;;;;;;;;;1.75;1.75;;;;;;;;5073904;28;50340;-63
2021/11/27 06:40:22;;;;;;;;;0.00;0.00;;;;;;;;5074328;27;49823;-62
2021/11/27 06:42:47;;;;;;;;;1.00;0.00;;;;;;;;5074184;27;49777;-62
2021/11/27 06:45:13;;;;;;;;;1.75;0.25;;;;;;;;5074218;27;49585;-61
2021/11/27 06:47:38;;;;;;;;;3.00;1.00;;;;;;;;5073738;27;50476;-62
2021/11/27 06:50:03;;;;;;;;;0.25;0.00;;;;;;;;5073517;27;49840;-62
2021/11/27 06:52:29;;;;;;;;;2.00;1.00;;;;;;;;5073916;27;49639;-61
2021/11/27 06:54:54;;;;;;;;;1.00;1.00;;;;;;;;5073964;27;49872;-62
2021/11/27 06:57:19;;;;;;;;;1.00;1.00;;;;;;;;5073810;27;50729;-62
2021/11/27 06:59:44;;;;;;;;;1.50;0.00;;;;;;;;5073884;27;49964;-63
2021/11/27 07:02:10;;;;;;;;;0.50;0.50;;;;;;;;5073837;27;49640;-61
2021/11/27 07:04:35;;;;;;;;;1.50;1.25;;;;;;;;5072260;28;49989;-63
2021/11/27 07:07:00;;;;;;;;;4.00;0.00;;;;;;;;5073589;27;50569;-62
2021/11/27 07:09:25;;;;;;;;;1.00;1.00;;;;;;;;5073510;28;49734;-63
2021/11/27 07:11:51;;;;;;;;;2.00;1.00;;;;;;;;5073459;27;49776;-61
2021/11/27 07:14:16;;;;;;;;;4.00;1.00;;;;;;;;5073885;28;49658;-61
2021/11/27 07:16:41;;;;;;;;;1.00;0.00;;;;;;;;5073386;27;49983;-62
2021/11/27 07:19:07;;;;;;;;;2.25;1.75;;;;;;;;5073235;27;49688;-62
2021/11/27 07:21:32;;;;;;;;;1.75;1.00;;;;;;;;5073457;28;49818;-62
2021/11/27 07:23:57;;;;;;;;;0.00;0.00;;;;;;;;5071636;28;50323;-62
2021/11/27 07:26:22;;;;;;;;;0.25;0.25;;;;;;;;5073046;27;49855;-61
2021/11/27 07:28:49;;;;;;;;;0.00;0.00;;;;;;;;5073128;28;49753;-64
2021/11/27 07:31:14;;;;;;;;;0.75;0.75;;;;;;;;5073403;28;49696;-62
2021/11/27 07:33:39;;;;;;;;;1.00;1.00;;;;;;;;5072820;27;49940;-62
2021/11/27 07:36:05;;;;;;;;;0.75;0.25;;;;;;;;5073139;28;49705;-62
2021/11/27 07:38:30;;;;;;;;;0.00;0.00;;;;;;;;5073335;27;49722;-61
2021/11/27 07:40:56;;;;;;;;;0.00;0.00;;;;;;;;5073350;27;50477;-62
2021/11/27 07:43:21;;;;;;;;;2.00;1.00;;;;;;;;5073175;27;49990;-61
2021/11/27 07:45:46;;;;;;;;;0.25;0.25;;;;;;;;5072794;27;49753;-61
2021/11/27 07:48:11;;;;;;;;;0.00;0.00;;;;;;;;5072795;27;49919;-61
2021/11/27 07:50:36;;;;;;;;;0.75;0.75;;;;;;;;5072965;27;49848;-62
2021/11/27 07:53:03;;;;;;;;;1.00;1.00;;;;;;;;5073208;28;49796;-63
2021/11/27 07:55:29;;;;;;;;;0.75;0.00;;;;;;;;5072866;28;49614;-66
2021/11/27 07:57:54;;;;;;;;;0.00;0.00;;;;;;;;5072674;27;49725;-63
2021/11/27 08:00:19;;;;;;;;;4.00;1.00;;;;;;;;5072212;27;50122;-64
2021/11/27 08:02:44;;;;;;;;;0.00;0.00;;;;;;;;5073043;28;49980;-62
2021/11/27 08:05:13;;;;;;;;;1.00;1.00;;;;;;;;5072399;27;50638;-62
2021/11/27 08:07:38;;;;;;;;;1.00;1.00;;;;;;;;5072530;28;49760;-63
2021/11/27 08:10:05;;;;;;;;;1.00;1.00;;;;;;;;5071451;28;49629;-76
2021/11/27 08:12:30;;;;;;;;;1.00;1.00;;;;;;;;5073009;27;49942;-67
2021/11/27 08:14:55;;;;;;;;;0.75;0.75;;;;;;;;5072388;27;50402;-62
2021/11/27 08:17:20;;;;;;;;;0.00;0.00;;;;;;;;5072600;27;49738;-71
2021/11/27 08:19:46;;;;;;;;;0.50;0.50;;;;;;;;5072481;28;49945;-62
2021/11/27 08:22:11;;;;;;;;;2.00;2.00;;;;;;;;5072616;27;49806;-68
2021/11/27 08:24:36;;;;;;;;;2.00;0.00;;;;;;;;5072280;27;50309;-62
2021/11/27 08:27:01;;;;;;;;;1.00;0.00;;;;;;;;5072407;27;49673;-64
2021/11/27 08:29:27;;;;;;;;;1.00;1.00;;;;;;;;5072661;27;49615;-75
2021/11/27 08:31:52;;;;;;;;;0.00;0.00;;;;;;;;5072628;27;49849;-68
2021/11/27 08:34:17;;;;;;;;;5.00;1.00;;;;;;;;5071836;28;50998;-66
2021/11/27 08:36:42;;;;;;;;;1.00;1.00;;;;;;;;5072287;27;49763;-61
2021/11/27 08:39:09;;;;;;;;;3.75;1.50;;;;;;;;5074586;28;49850;-69
2021/11/27 08:41:34;;;;;;;;;1.00;1.00;;;;;;;;5071543;27;49891;-61
2021/11/27 08:43:59;;;;;;;;;0.00;0.00;;;;;;;;5071440;27;51068;-69
2021/11/27 08:46:24;;;;;;;;;1.75;1.75;;;;;;;;5072487;27;49960;-67
2021/11/27 08:48:50;;;;;;;;;1.00;1.00;;;;;;;;5071826;27;49741;-67
2021/11/27 08:51:15;;;;;;;;;2.00;2.00;;;;;;;;5076071;27;49659;-64
2021/11/27 08:53:40;;;;;;;;;1.00;1.00;;;;;;;;5089659;27;49467;-68
2021/11/27 08:56:07;;;;;;;;;1.50;1.50;;;;;;;;5089461;27;49493;-64
2021/11/27 08:58:32;;;;;;;;;1.25;1.25;;;;;;;;5077341;27;49612;-63
2021/11/27 09:00:57;;;;;;;;;0.75;0.75;;;;;;;;5084070;28;49543;-62
2021/11/27 09:03:23;;;;;;;;;0.00;0.00;;;;;;;;5074560;27;50868;-63
2021/11/27 09:05:48;;;;;;;;;1.25;1.00;;;;;;;;5075206;28;49742;-62
2021/11/27 09:08:17;;;;;;;;;0.75;0.75;;;;;;;;5073483;28;49755;-62
2021/11/27 09:10:43;;;;;;;;;0.00;0.00;;;;;;;;5073832;28;49552;-63
2021/11/27 09:13:09;;;;;;;;;0.50;0.00;;;;;;;;5072528;28;49771;-63
2021/11/27 09:15:34;;;;;;;;;0.00;0.00;;;;;;;;5073062;27;49688;-62
2021/11/27 09:18:01;;;;;;;;;0.00;0.00;;;;;;;;5071520;27;50178;-61
2021/11/27 09:20:27;;;;;;;;;0.50;0.00;;;;;;;;5071851;27;50047;-61
2021/11/27 09:22:52;;;;;;;;;0.75;0.00;;;;;;;;5071281;27;49778;-68
2021/11/27 09:25:17;;;;;;;;;0.75;0.00;;;;;;;;5071557;28;49849;-69
2021/11/27 09:27:42;;;;;;;;;1.00;0.00;;;;;;;;5071579;27;49705;-62
2021/11/27 09:30:09;;;;;;;;;1.00;1.00;;;;;;;;5071666;28;49720;-62
2021/11/27 09:32:34;;;;;;;;;0.75;0.00;;;;;;;;5071186;27;50448;-62
2021/11/27 09:35:00;;;;;;;;;0.00;0.00;;;;;;;;5070974;27;49773;-62
2021/11/27 09:37:25;;;;;;;;;0.75;0.00;;;;;;;;5071677;27;49782;-63
2021/11/27 09:39:51;;;;;;;;;0.25;0.00;;;;;;;;5071690;27;49567;-64
2021/11/27 09:42:17;;;;;;;;;1.00;1.00;;;;;;;;5071735;28;50124;-72
2021/11/27 09:44:49;;;;;;;;;3.25;2.00;;;;;;;;5075953;27;49658;-74
2021/11/27 09:47:15;;;;;;;;;2.00;0.00;;;;;;;;5068868;28;49869;-75
2021/11/27 09:49:42;;;;;;;;;0.00;0.00;;;;;;;;5071172;27;49883;-74
2021/11/27 09:52:07;;;;;;;;;1.50;1.00;;;;;;;;5070827;28;50062;-74
2021/11/27 09:54:33;;;;;;;;;1.00;0.00;;;;;;;;5069476;28;49624;-74
2021/11/27 09:56:59;;;;;;;;;0.00;0.00;;;;;;;;5072410;28;49584;-71
2021/11/27 09:59:25;;;;;;;;;1.75;1.75;;;;;;;;5074560;27;50598;-71
2021/11/27 10:01:52;;;;;;;;;0.25;0.25;;;;;;;;5074609;27;50366;-71
2021/11/27 10:04:17;;;;;;;;;0.50;0.00;;;;;;;;5074404;27;49845;-71
2021/11/27 10:06:44;;;;;;;;;1.00;1.00;;;;;;;;5074401;27;49691;-71
2021/11/27 10:09:13;;;;;;;;;2.00;1.00;;;;;;;;5074669;27;49651;-72
2021/11/27 10:11:39;;;;;;;;;0.00;0.00;;;;;;;;5073959;27;50480;-71
2021/11/27 10:14:05;;;;;;;;;0.00;0.00;;;;;;;;5074442;27;49850;-71
2021/11/27 10:16:32;;;;;;;;;1.00;1.00;;;;;;;;5074672;27;49783;-71
2021/11/27 10:19:03;;;;;;;;;2.00;0.00;;;;;;;;5074430;27;50099;-71
2021/11/27 10:21:28;;;;;;;;;1.00;1.00;;;;;;;;5072715;28;51580;-71
2021/11/27 10:23:53;;;;;;;;;1.00;1.00;;;;;;;;5074433;27;49732;-71
2021/11/27 10:26:36;;;;;;;;;1.25;1.00;;;;;;;;5074206;27;50058;-70
2021/11/27 10:29:12;;;;;;;;;0.00;0.00;;;;;;;;5071112;27;51335;-68
2021/11/27 10:31:37;;;;;;;;;2.00;0.00;;;;;;;;5068993;28;51532;-69
2021/11/27 10:34:02;;;;;;;;;0.75;0.75;;;;;;;;5072431;28;49762;-69
2021/11/27 10:36:32;;;;;;;;;0.25;0.00;;;;;;;;5072866;28;49541;-69
2021/11/27 10:39:05;;;;;;;;;0.75;0.75;;;;;;;;5074407;27;49715;-73
2021/11/27 10:41:36;;;;;;;;;0.00;0.00;;;;;;;;5072605;28;51649;-69
2021/11/27 10:44:05;;;;;;;;;0.00;0.00;;;;;;;;5073905;28;49591;-69
2021/11/27 10:46:32;;;;;;;;;0.50;0.50;;;;;;;;5073916;28;49741;-69
2021/11/27 10:48:58;;;;;;;;;1.00;1.00;;;;;;;;5073805;28;49584;-70
2021/11/27 10:51:23;;;;;;;;;1.50;1.00;;;;;;;;5073220;27;49818;-70
2021/11/27 10:53:52;;;;;;;;;1.00;1.00;;;;;;;;5073987;28;49661;-70
2021/11/27 10:56:18;;;;;;;;;1.50;1.50;;;;;;;;5073871;27;49859;-69
2021/11/27 10:58:56;;;;;;;;;0.50;0.25;;;;;;;;5073650;27;50241;-64
2021/11/27 11:01:21;;;;;;;;;0.50;0.50;;;;;;;;5071601;27;51328;-67
2021/11/27 11:03:47;;;;;;;;;0.00;0.00;;;;;;;;5073255;27;49863;-61
2021/11/27 11:06:20;;;;;;;;;0.75;0.75;;;;;;;;5073701;27;49856;-60
2021/11/27 11:08:46;;;;;;;;;1.00;1.00;;;;;;;;5073153;27;49706;-61
2021/11/27 11:11:18;;;;;;;;;1.25;1.00;;;;;;;;5073148;27;50648;-60
2021/11/27 11:13:43;;;;;;;;;2.25;2.00;;;;;;;;5073384;27;49666;-60
2021/11/27 11:16:08;;;;;;;;;1.75;1.75;;;;;;;;5073347;28;49838;-60
2021/11/27 11:18:37;;;;;;;;;2.00;2.00;;;;;;;;5073985;28;49854;-64
2021/11/27 11:21:04;;;;;;;;;0.75;0.75;;;;;;;;5072189;28;50077;-60
2021/11/27 11:23:39;;;;;;;;;0.00;0.00;;;;;;;;5074073;27;49969;-61
2021/11/27 11:26:13;;;;;;;;;1.00;1.00;;;;;;;;5069965;28;49866;-61
2021/11/27 11:28:47;;;;;;;;;2.00;2.00;;;;;;;;5072866;28;49932;-60
2021/11/27 11:31:15;;;;;;;;;1.00;1.00;;;;;;;;5072644;27;51620;-64
2021/11/27 11:33:43;;;;;;;;;1.00;1.00;;;;;;;;5074209;27;49936;-64
2021/11/27 11:36:10;;;;;;;;;5.00;2.50;;;;;;;;5071836;27;49865;-70
2021/11/27 11:38:36;;;;;;;;;1.00;1.00;;;;;;;;5073373;27;49898;-71
2021/11/27 11:41:02;;;;;;;;;1.75;1.75;;;;;;;;5073114;27;49972;-74
2021/11/27 11:43:27;;;;;;;;;2.00;1.00;;;;;;;;5073039;28;49609;-74
2021/11/27 11:45:53;;;;;;;;;1.00;1.00;;;;;;;;5073338;28;49947;-71
2021/11/27 11:48:20;;;;;;;;;1.00;1.00;;;;;;;;5074849;27;49649;-79
2021/11/27 11:50:47;;;;;;;;;0.50;0.50;;;;;;;;5072597;27;49825;-68
2021/11/27 11:53:20;;;;;;;;;1.25;1.25;;;;;;;;5072888;28;49674;-71
2021/11/27 11:55:53;;;;;;;;;0.00;0.00;;;;;;;;5071234;28;49588;-63
2021/11/27 11:58:26;;;;;;;;;1.50;1.50;;;;;;;;5073018;28;49824;-64
2021/11/27 12:00:55;;;;;;;;;1.00;1.00;;;;;;;;5073606;27;50439;-61
2021/11/27 12:03:22;;;;;;;;;1.00;1.00;;;;;;;;5073365;28;49508;-72
2021/11/27 12:05:58;;;;;;;;;1.00;1.00;;;;;;;;5071169;27;49615;-63
2021/11/27 12:08:42;;;;;;;;;1.25;1.25;;;;;;;;5072329;27;49998;-69
2021/11/27 12:11:07;;;;;;;;;1.00;1.00;;;;;;;;5071804;27;51033;-72
2021/11/27 12:13:34;;;;;;;;;2.00;2.00;;;;;;;;5070851;27;49545;-65
2021/11/27 12:16:04;;;;;;;;;4.75;4.50;;;;;;;;5069634;28;49991;-64
2021/11/27 12:18:29;;;;;;;;;1.25;1.25;;;;;;;;5071470;27;49770;-72
2021/11/27 12:20:56;;;;;;;;;1.25;1.25;;;;;;;;5070266;28;50452;-65
2021/11/27 12:23:45;;;;;;;;;2.00;2.00;;;;;;;;5071403;27;49677;-71
2021/11/27 12:26:15;;;;;;;;;6.00;2.25;;;;;;;;5070740;27;49768;-69
2021/11/27 12:28:49;;;;;;;;;1.00;1.00;;;;;;;;5069812;28;50190;-69
2021/11/27 12:31:18;;;;;;;;;0.25;0.25;;;;;;;;5069499;27;49802;-66
2021/11/27 12:33:43;;;;;;;;;1.00;1.00;;;;;;;;5069854;27;49802;-70
2021/11/27 12:36:31;;;;;;;;;0.50;0.50;;;;;;;;5069694;27;49823;-73
2021/11/27 12:39:07;;;;;;;;;2.00;2.00;;;;;;;;5069720;27;49951;-72
2021/11/27 12:41:35;;;;;;;;;0.00;0.00;;;;;;;;5070794;27;49718;-68
2021/11/27 12:44:09;;;;;;;;;1.00;1.00;;;;;;;;5071550;28;49719;-73
2021/11/27 12:46:35;;;;;;;;;2.00;2.00;;;;;;;;5071671;27;49762;-63
2021/11/27 12:49:00;;;;;;;;;1.50;1.50;;;;;;;;5071576;27;49720;-61
2021/11/27 12:51:25;;;;;;;;;0.50;0.50;;;;;;;;5070893;28;49646;-60
2021/11/27 12:54:00;;;;;;;;;1.00;1.00;;;;;;;;5071816;27;49716;-60
2021/11/27 12:56:25;;;;;;;;;1.50;1.50;;;;;;;;5071486;27;49798;-60
2021/11/27 12:58:51;;;;;;;;;2.00;2.00;;;;;;;;5071646;27;49633;-61
2021/11/27 13:01:26;;;;;;;;;1.25;1.25;;;;;;;;5071031;27;50545;-61
2021/11/27 13:03:52;;;;;;;;;2.00;1.00;;;;;;;;5071767;27;49836;-61
2021/11/27 13:06:17;;;;;;;;;2.00;2.00;;;;;;;;5070907;27;49714;-61
2021/11/27 13:08:43;;;;;;;;;2.00;2.00;;;;;;;;5071227;27;49548;-61
2021/11/27 13:11:09;;;;;;;;;2.75;2.00;;;;;;;;5070827;27;50448;-61
2021/11/27 13:13:35;;;;;;;;;5.75;4.50;;;;;;;;5071115;27;49765;-62
2021/11/27 13:16:06;;;;;;;;;5.25;5.00;;;;;;;;5071115;27;49688;-65
2021/11/27 13:18:31;;;;;;;;;13.00;12.75;;;;;;;;5071332;27;49811;-61
2021/11/27 13:20:57;;;;;;;;;7.50;6.00;;;;;;;;5070542;27;50542;-63
2021/11/27 13:23:27;;;;;;;;;3.00;2.00;;;;;;;;5070937;27;49877;-61
2021/11/27 13:25:54;;;;;;;;;5.25;3.00;;;;;;;;5070991;27;49707;-61
2021/11/27 13:28:19;;;;;;;;;6.75;5.25;;;;;;;;5071116;27;49782;-62
2021/11/27 13:30:44;;;;;;;;;7.20;5.60;;;;;;;;5073827;27;49670;-62
2021/11/27 13:33:09;;;;;;;;;7.00;6.75;;;;;;;;5070911;27;49766;-61
2021/11/27 13:35:36;;;;;;;;;5.00;5.00;;;;;;;;5071250;27;50037;-61
2021/11/27 13:38:01;;;;;;;;;7.50;7.00;;;;;;;;5070999;28;49774;-61
2021/11/27 13:40:30;;;;;;;;;3.00;3.00;;;;;;;;5070636;28;50583;-62
2021/11/27 13:43:03;;;;;;;;;2.75;2.75;;;;;;;;5070571;27;49878;-60
2021/11/27 13:45:29;;;;;;;;;2.50;2.25;;;;;;;;5071061;27;49966;-58
2021/11/27 13:47:55;;;;;;;;;5.50;2.25;;;;;;;;5071030;27;49722;-59
2021/11/27 13:50:20;;;;;;;;;3.00;3.00;;;;;;;;5071635;27;50828;-68
2021/11/27 13:52:47;;;;;;;;;6.25;6.25;;;;;;;;5085189;28;49243;-68
2021/11/27 13:55:17;;;;;;;;;5.00;5.00;;;;;;;;5078259;27;49728;-68
2021/11/27 13:57:43;;;;;;;;;3.50;2.00;;;;;;;;5073806;27;49824;-71
2021/11/27 14:00:12;;;;;;;;;2.50;2.50;;;;;;;;5085667;28;49649;-70
2021/11/27 14:02:38;;;;;;;;;5.00;2.50;;;;;;;;5087579;28;49673;-71
2021/11/27 14:05:03;;;;;;;;;2.00;2.00;;;;;;;;5086229;27;49337;-68
2021/11/27 14:07:39;;;;;;;;;3.50;2.25;;;;;;;;5087519;28;49556;-65
2021/11/27 14:10:12;;;;;;;;;4.00;3.25;;;;;;;;5087143;28;50081;-66
2021/11/27 14:12:38;;;;;;;;;5.00;5.00;;;;;;;;5078117;28;49729;-69
2021/11/27 14:15:08;;;;;;;;;2.75;2.75;;;;;;;;5071497;28;49794;-65
2021/11/27 14:17:34;;;;;;;;;3.00;3.00;;;;;;;;5069296;27;49972;-67
2021/11/27 14:20:09;;;;;;;;;7.25;7.25;;;;;;;;5071163;28;50516;-68
2021/11/27 14:22:37;;;;;;;;;4.00;4.00;;;;;;;;5067492;28;49904;-68
2021/11/27 14:25:11;;;;;;;;;7.00;5.00;;;;;;;;5067460;27;50076;-67
2021/11/27 14:27:46;;;;;;;;;11.00;9.00;;;;;;;;5065393;28;49819;-72
2021/11/27 14:30:19;;;;;;;;;6.00;4.75;;;;;;;;5065560;28;49908;-67
2021/11/27 14:32:44;;;;;;;;;9.00;7.00;;;;;;;;5073063;27;49746;-67
2021/11/27 14:35:28;;;;;;;;;7.00;7.00;;;;;;;;5072047;28;49503;-71
2021/11/27 14:37:54;;;;;;;;;10.75;10.75;;;;;;;;5067006;28;49644;-69
2021/11/27 14:40:19;;;;;;;;;9.00;6.25;;;;;;;;5066890;28;51676;-72